Time;durP1;ratioP1;P1;durP2;ratioP2;P2;SDS_P1;SDS_P2;PMS_P1;PMS_P2;Temp;Humidity;BMP_temperature;BMP_pressure;BME280_temperature;BME280_humidity;BME280_pressure;Samples;Min_cycle;Max_cycle;Signal;HPM_P1;HPM_P2
2023/10/14 00:01:29;;;;;;;;;;;;;;;14.21;100.00;100102.75;4897092;29;19938;-88
2023/10/14 00:03:55;;;;;;;;;;;;;;;14.15;100.00;100102.75;4914168;29;19916;-88
2023/10/14 00:06:21;;;;;;;;;;;;;;;14.12;100.00;100122.00;4896952;29;19915;-88
2023/10/14 00:11:21;;;;;;;;;;;;;;;14.24;100.00;100170.88;4914173;29;19916;-88
2023/10/14 00:13:50;;;;;;;;;;;;;;;14.09;100.00;100133.34;4896931;29;19915;-88
2023/10/14 00:18:55;;;;;;;;;;;;;;;14.08;100.00;100126.34;4917112;29;19919;-88
2023/10/14 00:21:21;;;;;;;;;;;;;;;13.99;100.00;100120.25;4900223;29;19915;-88
2023/10/14 00:23:47;;;;;;;;;;;;;;;13.99;100.00;100138.59;4916985;29;19949;-88
2023/10/14 00:26:16;;;;;;;;;;;;;;;13.99;100.00;100147.34;4900086;29;20060;-88
2023/10/14 00:28:45;;;;;;;;;;;;;;;14.02;100.00;100136.84;4887147;29;20366;-88
2023/10/14 00:31:14;;;;;;;;;;;;;;;13.99;100.00;100129.00;4900169;29;19915;-87
2023/10/14 00:33:40;;;;;;;;;;;;;;;13.99;100.00;100144.72;4899958;29;19974;-88
2023/10/14 00:36:10;;;;;;;;;;;;;;;13.96;100.00;100142.09;4899926;29;19919;-89
2023/10/14 00:38:36;;;;;;;;;;;;;;;14.02;100.00;100185.72;4899856;29;19926;-88
2023/10/14 00:41:02;;;;;;;;;;;;;;;13.94;100.00;100193.59;4916913;29;19926;-88
2023/10/14 00:43:27;;;;;;;;;;;;;;;13.93;100.00;100204.94;4916892;29;20005;-89
2023/10/14 00:45:52;;;;;;;;;;;;;;;13.90;100.00;100197.09;4899622;29;20404;-89
2023/10/14 00:48:27;;;;;;;;;;;;;;;13.89;100.00;100205.84;4899586;29;19926;-89
2023/10/14 00:50:52;;;;;;;;;;;;;;;13.87;100.00;100213.66;4916681;29;19927;-88
2023/10/14 00:53:18;;;;;;;;;;;;;;;13.93;100.00;100210.19;4916719;29;19915;-88
2023/10/14 00:55:54;;;;;;;;;;;;;;;13.89;100.00;100198.00;4916720;29;20027;-88
2023/10/14 00:58:28;;;;;;;;;;;;;;;13.88;100.00;100210.19;4899552;29;19994;-88
2023/10/14 01:00:59;;;;;;;;;;;;;;;13.91;100.00;100211.94;4916503;29;20271;-88
2023/10/14 01:03:25;;;;;;;;;;;;;;;13.91;100.00;100204.94;4916731;29;19921;-88
2023/10/14 01:05:52;;;;;;;;;;;;;;;13.89;100.00;100216.31;4916600;29;19919;-88
2023/10/14 01:08:22;;;;;;;;;;;;;;;13.83;100.00;100224.16;4916187;29;20412;-89
2023/10/14 01:10:49;;;;;;;;;;;;;;;13.88;100.00;100228.53;4899509;29;20010;-89
2023/10/14 01:13:15;;;;;;;;;;;;;;;13.86;100.00;100259.09;4916305;29;19950;-88
2023/10/14 01:15:44;;;;;;;;;;;;;;;14.39;100.00;100262.53;4899514;29;19954;-89
2023/10/14 01:18:11;;;;;;;;;;;;;;;13.96;100.00;100267.84;4916310;29;19994;-88
2023/10/14 01:20:39;;;;;;;;;;;;;;;13.72;100.00;100263.44;4916377;29;20060;-89
2023/10/14 01:23:08;;;;;;;;;;;;;;;13.51;100.00;100270.38;4899006;29;20009;-89
2023/10/14 01:25:46;;;;;;;;;;;;;;;13.34;100.00;100275.56;4916163;29;20002;-89
2023/10/14 01:28:12;;;;;;;;;;;;;;;13.26;100.00;100274.63;4903241;29;20006;-88
2023/10/14 01:30:50;;;;;;;;;;;;;;;13.23;100.00;100290.31;4915524;29;19999;-89
2023/10/14 01:33:16;;;;;;;;;;;;;;;13.22;100.00;100299.03;4915954;29;19942;-89
2023/10/14 01:35:45;;;;;;;;;;;;;;;13.24;100.00;100302.53;4887468;29;19969;-89
2023/10/14 01:38:10;;;;;;;;;;;;;;;13.18;100.00;100308.63;4911591;29;19915;-89
2023/10/14 01:40:37;;;;;;;;;;;;;;;13.16;100.00;100312.09;4898852;29;20344;-89
2023/10/14 01:43:05;;;;;;;;;;;;;;;13.19;100.00;100327.78;4915872;29;19926;-89
2023/10/14 01:45:39;;;;;;;;;;;;;;;13.13;100.00;100325.16;4916018;29;20461;-89
2023/10/14 01:50:38;;;;;;;;;;;;;;;13.18;100.00;100344.38;4915798;29;19915;-89
2023/10/14 01:53:10;;;;;;;;;;;;;;;13.31;100.00;100350.50;4898362;29;19965;-89
2023/10/14 01:55:36;;;;;;;;;;;;;;;13.23;100.00;100366.19;4898373;29;20296;-89
2023/10/14 01:58:10;;;;;;;;;;;;;;;13.29;100.00;100374.06;4898520;29;19922;-89
2023/10/14 02:00:39;;;;;;;;;;;;;;;13.10;100.00;100378.31;4898609;29;19962;-89
2023/10/14 02:03:07;;;;;;;;;;;;;;;12.99;100.00;100388.75;4916008;29;19970;-89
2023/10/14 02:05:44;;;;;;;;;;;;;;;12.96;100.00;100403.50;4915476;29;19922;-88
2023/10/14 02:08:16;;;;;;;;;;;;;;;12.91;100.00;100403.50;4898113;29;19926;-89
2023/10/14 02:10:46;;;;;;;;;;;;;;;12.94;100.00;100411.34;4898390;29;19999;-90
2023/10/14 02:13:12;;;;;;;;;;;;;;;12.88;100.00;100419.16;4898097;29;19958;-88
2023/10/14 02:15:38;;;;;;;;;;;;;;;13.09;100.00;100418.41;4915323;29;19930;-88
2023/10/14 02:18:03;;;;;;;;;;;;;;;12.88;100.00;100427.88;4915214;29;19915;-88
2023/10/14 02:20:28;;;;;;;;;;;;;;;12.84;100.00;100439.16;4898027;29;20287;-88
2023/10/14 02:22:57;;;;;;;;;;;;;;;12.89;100.00;100436.63;4897867;29;19927;-88
2023/10/14 02:25:27;;;;;;;;;;;;;;;12.81;100.00;100443.50;4898078;29;19982;-88
2023/10/14 02:27:53;;;;;;;;;;;;;;;12.81;100.00;100446.13;4902136;29;20246;-89
2023/10/14 02:30:18;;;;;;;;;;;;;;;12.81;100.00;100459.19;4897956;29;19925;-88
2023/10/14 02:32:43;;;;;;;;;;;;;;;12.82;100.00;100466.19;4897769;29;19919;-88
2023/10/14 02:35:09;;;;;;;;;;;;;;;12.81;100.00;100467.03;4897845;29;19919;-88
2023/10/14 02:37:34;;;;;;;;;;;;;;;12.79;100.00;100473.97;4897906;29;20306;-89
2023/10/14 02:39:59;;;;;;;;;;;;;;;12.85;100.00;100488.00;4914690;29;19915;-88
2023/10/14 02:42:25;;;;;;;;;;;;;;;12.74;100.00;100499.22;4915076;29;20289;-88
2023/10/14 02:44:53;;;;;;;;;;;;;;;12.66;100.00;100502.66;4914789;29;20429;-88
2023/10/14 02:47:21;;;;;;;;;;;;;;;12.62;100.00;100507.84;4897718;29;19919;-88
2023/10/14 02:49:53;;;;;;;;;;;;;;;12.68;100.00;100510.50;4897982;29;19947;-89
2023/10/14 02:52:19;;;;;;;;;;;;;;;12.60;100.00;100523.50;4914797;29;20400;-88
2023/10/14 02:54:53;;;;;;;;;;;;;;;12.56;100.00;100521.72;4897643;29;19915;-89
2023/10/14 02:57:26;;;;;;;;;;;;;;;12.67;100.00;100537.50;4914705;29;19919;-88
2023/10/14 02:59:52;;;;;;;;;;;;;;;12.57;100.00;100544.38;4897602;29;19915;-89
2023/10/14 03:04:55;;;;;;;;;;;;;;;12.58;100.00;100561.81;4914571;29;19915;-87
2023/10/14 03:07:28;;;;;;;;;;;;;;;12.32;100.00;100572.81;4897210;29;19974;-88
2023/10/14 03:10:11;;;;;;;;;;;;;;;12.23;100.00;100588.41;4897523;29;19925;-88
2023/10/14 03:12:39;;;;;;;;;;;;;;;12.10;100.00;100587.34;4897417;29;19937;-88
2023/10/14 03:15:21;;;;;;;;;;;;;;;12.10;100.00;100594.31;4914547;29;19915;-88
2023/10/14 03:17:52;;;;;;;;;;;;;;;11.99;100.00;100604.59;4897267;29;19922;-89
2023/10/14 03:22:53;;;;;;;;;;;;;;;11.92;100.00;100618.41;4914413;29;19930;-88
2023/10/14 03:25:23;;;;;;;;;;;;;;;11.88;100.00;100624.47;4897326;29;20361;-88
2023/10/14 03:27:48;;;;;;;;;;;;;;;11.82;100.00;100628.72;4901492;29;20052;-88
2023/10/14 03:30:15;;;;;;;;;;;;;;;11.75;100.00;100633.84;4897245;29;20377;-88
2023/10/14 03:32:42;;;;;;;;;;;;;;;11.70;100.00;100640.69;4897292;29;19937;-88
2023/10/14 03:35:12;;;;;;;;;;;;;;;11.63;100.00;100645.84;4897029;29;19923;-88
2023/10/14 03:37:44;;;;;;;;;;;;;;;11.57;100.00;100645.75;4896901;29;19919;-88
2023/10/14 03:42:54;;;;;;;;;;;;;;;11.43;100.00;100658.56;4914168;29;19925;-88
2023/10/14 03:45:28;;;;;;;;;;;;;;;11.39;100.00;100672.38;4914001;29;19919;-88
2023/10/14 03:47:59;;;;;;;;;;;;;;;11.33;100.00;100685.34;4897161;29;19954;-88
2023/10/14 03:50:24;;;;;;;;;;;;;;;11.27;100.00;100683.50;4896961;29;20087;-88
2023/10/14 03:52:51;;;;;;;;;;;;;;;11.27;100.00;100690.44;4915660;29;20513;-88
2023/10/14 03:55:19;;;;;;;;;;;;;;;11.24;100.00;100679.94;4900460;29;19923;-89
2023/10/14 03:57:45;;;;;;;;;;;;;;;11.23;100.00;100692.09;4917483;29;20052;-88
2023/10/14 04:00:12;;;;;;;;;;;;;;;11.22;100.00;100698.16;4901012;29;20346;-89
2023/10/14 04:02:40;;;;;;;;;;;;;;;11.24;100.00;100698.19;4917661;29;19916;-89
2023/10/14 04:05:10;;;;;;;;;;;;;;;11.26;100.00;100702.59;4917686;29;19919;-88
2023/10/14 04:07:40;;;;;;;;;;;;;;;11.25;100.00;100716.50;4900379;29;20516;-88
2023/10/14 04:10:08;;;;;;;;;;;;;;;11.21;100.00;100714.69;4900468;29;20301;-88
2023/10/14 04:12:38;;;;;;;;;;;;;;;11.10;100.00;100724.03;4917661;29;20041;-88
2023/10/14 04:17:38;;;;;;;;;;;;;;;11.18;100.00;100734.59;4917525;29;19915;-89
2023/10/14 04:35:23;;;;;;;;;;;;;;;10.76;100.00;100772.84;4916939;29;19920;-88
2023/10/14 04:37:52;;;;;;;;;;;;;;;10.75;100.00;100773.72;4917045;29;19915;-88
2023/10/14 04:40:35;;;;;;;;;;;;;;;10.77;100.00;100780.69;4916920;29;19954;-88
2023/10/14 04:43:06;;;;;;;;;;;;;;;10.79;100.00;100784.22;4917209;29;19950;-87
2023/10/14 04:45:32;;;;;;;;;;;;;;;10.68;100.00;100796.13;4916843;29;19922;-89
2023/10/14 04:47:58;;;;;;;;;;;;;;;10.64;100.00;100799.53;4899906;29;19915;-88
2023/10/14 04:50:24;;;;;;;;;;;;;;;10.61;100.00;100795.13;4917022;29;20194;-88
2023/10/14 04:52:49;;;;;;;;;;;;;;;10.59;100.00;100804.63;4899757;29;19970;-88
2023/10/14 05:00:41;;;;;;;;;;;;;;;10.54;100.00;100818.41;4916966;29;20479;-88
2023/10/14 05:03:06;;;;;;;;;;;;;;;10.46;100.00;100828.66;4899502;29;19954;-88
2023/10/14 05:05:32;;;;;;;;;;;;;;;10.47;100.00;100826.91;4916630;29;20389;-89
2023/10/14 05:07:58;;;;;;;;;;;;;;;10.42;100.00;100829.41;4916396;29;20013;-88
2023/10/14 05:10:28;;;;;;;;;;;;;;;10.48;100.00;100837.38;4899129;29;19922;-89
2023/10/14 05:12:53;;;;;;;;;;;;;;;10.40;100.00;100838.94;4916287;29;19915;-88
2023/10/14 05:15:25;;;;;;;;;;;;;;;10.36;100.00;100840.56;4916141;29;19915;-88
2023/10/14 05:17:50;;;;;;;;;;;;;;;10.37;100.00;100854.44;4899159;29;20462;-88
2023/10/14 05:20:19;;;;;;;;;;;;;;;10.38;100.00;100856.22;4898973;29;20009;-88
2023/10/14 05:22:47;;;;;;;;;;;;;;;10.32;100.00;100861.25;4915993;29;19946;-88
2023/10/14 05:25:27;;;;;;;;;;;;;;;10.32;100.00;100877.75;4915869;29;19915;-88
2023/10/14 05:27:55;;;;;;;;;;;;;;;10.34;100.00;100870.00;4892366;29;20350;-88
2023/10/14 05:30:21;;;;;;;;;;;;;;;10.32;100.00;100871.69;4898984;29;20246;-88
2023/10/14 05:32:48;;;;;;;;;;;;;;;10.27;100.00;100877.66;4899012;29;19958;-88
2023/10/14 05:35:13;;;;;;;;;;;;;;;10.25;100.00;100884.56;4915992;29;20295;-88
2023/10/14 05:37:41;;;;;;;;;;;;;;;10.20;100.00;100885.28;4899257;29;20301;-88
2023/10/14 05:40:13;;;;;;;;;;;;;;;10.23;100.00;100895.75;4898625;29;19951;-88
2023/10/14 05:42:38;;;;;;;;;;;;;;;10.19;100.00;100896.53;4898728;29;19915;-88
2023/10/14 05:45:04;;;;;;;;;;;;;;;10.23;100.00;100899.22;4915832;29;20254;-88
2023/10/14 05:47:29;;;;;;;;;;;;;;;10.17;100.00;100912.09;4915910;29;20010;-88
2023/10/14 05:49:55;;;;;;;;;;;;;;;10.21;100.00;100924.38;4915605;29;20538;-88
2023/10/14 05:52:24;;;;;;;;;;;;;;;10.21;100.00;100921.75;4898524;29;19959;-88
2023/10/14 05:54:50;;;;;;;;;;;;;;;10.19;100.00;100927.75;4898454;29;19915;-88
2023/10/14 05:57:17;;;;;;;;;;;;;;;10.19;100.00;100930.38;4915504;29;19979;-88
2023/10/14 05:59:43;;;;;;;;;;;;;;;10.22;100.00;100933.91;4915659;29;19915;-89
2023/10/14 06:02:12;;;;;;;;;;;;;;;10.21;100.00;100945.19;4915537;29;19922;-89
2023/10/14 06:04:40;;;;;;;;;;;;;;;10.21;100.00;100950.41;4915474;29;19938;-88
2023/10/14 06:07:12;;;;;;;;;;;;;;;10.25;100.00;100953.97;4898461;29;19916;-88
2023/10/14 06:09:38;;;;;;;;;;;;;;;10.23;100.00;100964.34;4898253;29;19919;-88
2023/10/14 06:12:12;;;;;;;;;;;;;;;10.27;100.00;100960.97;4898611;29;20404;-88
2023/10/14 06:14:38;;;;;;;;;;;;;;;10.31;100.00;100968.88;4897939;29;20457;-88
2023/10/14 06:17:03;;;;;;;;;;;;;;;10.30;100.00;100972.31;4915276;29;20017;-89
2023/10/14 06:19:30;;;;;;;;;;;;;;;10.36;100.00;100977.72;4898244;29;19957;-89
2023/10/14 06:21:56;;;;;;;;;;;;;;;10.33;100.00;100977.63;4898044;29;19915;-89
2023/10/14 06:24:21;;;;;;;;;;;;;;;10.34;100.00;100984.59;4915004;29;19971;-89
2023/10/14 06:26:46;;;;;;;;;;;;;;;10.34;100.00;100992.41;4902165;29;20392;-89
2023/10/14 06:29:13;;;;;;;;;;;;;;;10.37;100.00;100997.72;4898086;29;20371;-89
2023/10/14 06:31:40;;;;;;;;;;;;;;;10.36;100.00;101001.19;4897857;29;19915;-88
2023/10/14 06:34:08;;;;;;;;;;;;;;;10.38;100.00;101012.50;4897816;29;20375;-89
2023/10/14 06:36:34;;;;;;;;;;;;;;;10.41;100.00;101018.69;4897691;29;19958;-89
2023/10/14 06:39:12;;;;;;;;;;;;;;;10.37;100.00;101023.75;4915093;29;19962;-88
2023/10/14 06:41:43;;;;;;;;;;;;;;;10.34;100.00;101024.59;4897723;29;19979;-89
2023/10/14 06:44:08;;;;;;;;;;;;;;;10.41;100.00;101030.81;4914853;29;19939;-89
2023/10/14 06:46:34;;;;;;;;;;;;;;;10.39;100.00;101038.59;4914677;29;19915;-88
2023/10/14 06:48:59;;;;;;;;;;;;;;;10.40;100.00;101042.09;4914843;29;20015;-89
2023/10/14 06:51:25;;;;;;;;;;;;;;;10.43;100.00;101048.25;4914586;29;19915;-88
2023/10/14 06:53:51;;;;;;;;;;;;;;;10.41;100.00;101059.47;4897952;29;20333;-88
2023/10/14 06:56:16;;;;;;;;;;;;;;;10.43;100.00;101065.63;4914911;29;19927;-88
2023/10/14 06:58:44;;;;;;;;;;;;;;;10.39;100.00;101067.25;4897708;29;20044;-88
2023/10/14 07:01:09;;;;;;;;;;;;;;;10.27;100.00;101070.38;4897591;29;19915;-89
2023/10/14 07:03:38;;;;;;;;;;;;;;;10.31;100.00;101073.06;4897562;29;19923;-88
2023/10/14 07:06:04;;;;;;;;;;;;;;;10.40;100.00;101076.84;4897234;29;19919;-89
2023/10/14 07:08:32;;;;;;;;;;;;;;;10.26;100.00;101085.94;4914582;29;19923;-88
2023/10/14 07:11:00;;;;;;;;;;;;;;;10.30;100.00;101073.88;4914448;29;19922;-89
2023/10/14 07:13:25;;;;;;;;;;;;;;;10.22;100.00;101082.34;4914696;29;20016;-88
2023/10/14 07:15:51;;;;;;;;;;;;;;;10.30;100.00;101081.69;4914184;29;20073;-88
2023/10/14 07:18:23;;;;;;;;;;;;;;;10.22;100.00;101091.91;4914385;29;19923;-88
2023/10/14 07:20:56;;;;;;;;;;;;;;;10.19;100.00;101087.47;4897493;29;19915;-88
2023/10/14 07:23:21;;;;;;;;;;;;;;;10.23;100.00;101094.53;4897239;29;19923;-88
2023/10/14 07:25:47;;;;;;;;;;;;;;;10.28;100.00;101099.88;4901423;29;19915;-89
2023/10/14 07:28:15;;;;;;;;;;;;;;;10.32;100.00;101103.47;4899285;29;19963;-88
2023/10/14 07:30:48;;;;;;;;;;;;;;;10.32;100.00;101109.56;4901090;29;20373;-88
2023/10/14 07:33:14;;;;;;;;;;;;;;;10.37;100.00;101113.22;4900999;29;19915;-89
2023/10/14 07:35:42;;;;;;;;;;;;;;;10.44;100.00;101119.47;4901334;29;19915;-89
2023/10/14 07:38:11;;;;;;;;;;;;;;;10.46;100.00;101128.22;4918214;29;19922;-88
2023/10/14 07:40:37;;;;;;;;;;;;;;;10.40;100.00;101128.06;4900936;29;19919;-88
2023/10/14 07:43:07;;;;;;;;;;;;;;;10.41;100.00;101125.50;4917898;29;19975;-88
2023/10/14 07:45:33;;;;;;;;;;;;;;;10.38;100.00;101133.19;4900901;29;19963;-89
2023/10/14 07:47:59;;;;;;;;;;;;;;;10.39;100.00;101134.09;4875670;29;20425;-88
2023/10/14 07:50:25;;;;;;;;;;;;;;;10.42;100.00;101136.78;4917845;29;19920;-89
2023/10/14 07:52:51;;;;;;;;;;;;;;;10.50;100.00;101139.59;4902750;29;19926;-88
2023/10/14 07:55:22;;;;;;;;;;;;;;;10.57;100.00;101144.16;4911824;29;19919;-89
2023/10/14 07:57:48;;;;;;;;;;;;;;;10.59;100.00;101145.09;4900703;29;20026;-89
2023/10/14 08:00:14;;;;;;;;;;;;;;;10.69;100.00;101157.53;4901059;29;20060;-88
2023/10/14 08:02:40;;;;;;;;;;;;;;;10.69;100.00;101161.84;4904281;29;20469;-88
2023/10/14 08:05:07;;;;;;;;;;;;;;;10.83;100.00;101159.66;4900577;29;19937;-88
2023/10/14 08:07:35;;;;;;;;;;;;;;;10.85;99.81;101164.06;4909271;29;19971;-89
2023/10/14 08:10:16;;;;;;;;;;;;;;;10.86;100.00;101168.44;4865429;29;19924;-88
2023/10/14 08:12:42;;;;;;;;;;;;;;;10.83;100.00;101167.47;4898347;29;19915;-89
2023/10/14 08:15:08;;;;;;;;;;;;;;;10.77;100.00;101168.16;4894231;29;20047;-88
2023/10/14 08:17:33;;;;;;;;;;;;;;;10.81;100.00;101167.44;4884278;29;19966;-89
2023/10/14 08:19:58;;;;;;;;;;;;;;;10.87;100.00;101182.34;4918062;29;19914;-89
2023/10/14 08:22:24;;;;;;;;;;;;;;;11.05;98.64;101189.78;4877611;29;20148;-88
2023/10/14 08:24:49;;;;;;;;;;;;;;;11.04;99.13;101186.31;4870228;29;19924;-88
2023/10/14 08:27:14;;;;;;;;;;;;;;;11.08;98.57;101197.69;4896576;29;19922;-89
2023/10/14 08:29:41;;;;;;;;;;;;;;;11.11;99.06;101197.81;4883068;29;19966;-89
2023/10/14 08:32:06;;;;;;;;;;;;;;;11.12;98.44;101199.53;4898955;29;20415;-89
2023/10/14 08:34:32;;;;;;;;;;;;;;;11.20;97.10;101202.38;4889231;29;20442;-89
2023/10/14 08:36:57;;;;;;;;;;;;;;;11.13;98.20;101202.19;4875239;29;20324;-89
2023/10/14 08:39:23;;;;;;;;;;;;;;;11.24;97.78;101212.03;4873012;29;19923;-89
2023/10/14 08:41:49;;;;;;;;;;;;;;;11.31;96.77;101219.16;4889446;29;19971;-88
2023/10/14 08:44:18;;;;;;;;;;;;;;;11.31;96.27;101220.06;4894610;29;19923;-88
2023/10/14 08:46:44;;;;;;;;;;;;;;;11.42;95.01;101219.47;4885035;29;20006;-89
2023/10/14 08:49:12;;;;;;;;;;;;;;;11.54;93.95;101238.03;4892110;29;20019;-88
2023/10/14 08:51:39;;;;;;;;;;;;;;;11.57;92.81;101230.31;4886065;29;19926;-89
2023/10/14 08:54:06;;;;;;;;;;;;;;;11.61;92.78;101231.25;4882098;29;19916;-88
2023/10/14 08:56:34;;;;;;;;;;;;;;;11.65;92.73;101236.59;4889266;29;20011;-89
2023/10/14 08:59:00;;;;;;;;;;;;;;;11.62;92.70;101243.47;4878139;29;19922;-89
2023/10/14 09:01:26;;;;;;;;;;;;;;;11.67;93.72;101244.47;4893148;29;19927;-88
2023/10/14 09:03:51;;;;;;;;;;;;;;;11.65;92.87;101241.81;4864154;29;19931;-89
2023/10/14 09:06:18;;;;;;;;;;;;;;;11.63;94.42;101248.75;4887908;29;19945;-88
2023/10/14 09:08:44;;;;;;;;;;;;;;;11.77;93.44;101248.19;4879875;29;19953;-89
2023/10/14 09:11:24;;;;;;;;;;;;;;;11.82;92.70;101257.03;4904915;29;19954;-88
2023/10/14 09:13:59;;;;;;;;;;;;;;;11.86;91.60;101260.59;4871305;29;19923;-88
2023/10/14 09:16:26;;;;;;;;;;;;;;;11.93;91.83;101260.81;4906346;29;19921;-89
2023/10/14 09:18:58;;;;;;;;;;;;;;;12.19;88.97;101268.41;4875937;29;19915;-89
2023/10/14 09:21:23;;;;;;;;;;;;;;;12.06;89.00;101258.50;4882165;29;19999;-88
2023/10/14 09:23:50;;;;;;;;;;;;;;;12.17;87.28;101263.16;4887701;29;19955;-88
2023/10/14 09:26:17;;;;;;;;;;;;;;;12.29;86.05;101259.06;4872853;29;19919;-89
2023/10/14 09:28:44;;;;;;;;;;;;;;;12.09;88.06;101261.19;4875046;29;19919;-89
2023/10/14 09:31:10;;;;;;;;;;;;;;;12.26;86.58;101257.25;4876406;29;19932;-89
2023/10/14 09:33:41;;;;;;;;;;;;;;;12.37;84.48;101261.84;4901981;29;19927;-88
2023/10/14 09:36:14;;;;;;;;;;;;;;;12.30;87.01;101264.31;4867466;29;20011;-88
2023/10/14 09:38:40;;;;;;;;;;;;;;;12.44;84.64;101258.50;4901683;29;19927;-88
2023/10/14 09:41:07;;;;;;;;;;;;;;;12.35;86.05;101269.66;4896718;29;19927;-89
2023/10/14 09:43:46;;;;;;;;;;;;;;;12.51;85.50;101278.72;4874651;29;19959;-89
2023/10/14 09:46:12;;;;;;;;;;;;;;;12.65;81.74;101268.59;4878109;29;19927;-89
2023/10/14 09:48:43;;;;;;;;;;;;;;;12.59;80.63;101269.31;4891899;29;19923;-88
2023/10/14 09:51:12;;;;;;;;;;;;;;;12.51;80.88;101271.78;4890985;29;19920;-89
2023/10/14 09:53:37;;;;;;;;;;;;;;;12.62;80.21;101273.75;4897516;29;19922;-88
2023/10/14 09:56:06;;;;;;;;;;;;;;;12.49;80.11;101277.81;4898429;29;19915;-88
2023/10/14 09:58:34;;;;;;;;;;;;;;;12.51;80.20;101276.09;4915294;29;19915;-89
2023/10/14 10:01:00;;;;;;;;;;;;;;;12.66;79.20;101276.47;4898439;29;19919;-89
2023/10/14 10:03:27;;;;;;;;;;;;;;;12.66;80.15;101279.06;4915677;29;19918;-89
2023/10/14 10:06:10;;;;;;;;;;;;;;;12.86;77.95;101273.38;4915526;29;19921;-88
2023/10/14 10:08:45;;;;;;;;;;;;;;;13.03;77.88;101276.34;4898010;29;19966;-89
2023/10/14 10:11:11;;;;;;;;;;;;;;;13.22;79.12;101278.50;4898373;29;20374;-88
2023/10/14 10:13:39;;;;;;;;;;;;;;;13.45;76.04;101287.66;4915280;29;20449;-89
2023/10/14 10:16:04;;;;;;;;;;;;;;;13.50;77.99;101293.88;4898253;29;19915;-89
2023/10/14 10:18:49;;;;;;;;;;;;;;;13.70;75.72;101300.38;4898102;29;19919;-88
2023/10/14 10:21:16;;;;;;;;;;;;;;;13.82;72.47;101296.22;4915033;29;19915;-89
2023/10/14 10:23:42;;;;;;;;;;;;;;;13.90;71.60;101290.25;4914658;29;20327;-88
2023/10/14 10:26:08;;;;;;;;;;;;;;;14.14;69.34;101296.72;4892276;29;19927;-89
2023/10/14 10:28:37;;;;;;;;;;;;;;;14.20;69.85;101309.06;4897771;29;19919;-89
2023/10/14 10:31:10;;;;;;;;;;;;;;;14.33;69.21;101295.28;4897816;29;19919;-89
2023/10/14 10:33:45;;;;;;;;;;;;;;;14.42;69.55;101294.53;4897678;29;20362;-89
2023/10/14 10:36:12;;;;;;;;;;;;;;;14.65;68.85;101301.91;4898058;29;20254;-89
2023/10/14 10:38:38;;;;;;;;;;;;;;;14.76;67.25;101306.44;4915121;29;19942;-89
2023/10/14 10:41:16;;;;;;;;;;;;;;;14.94;65.14;101311.03;4897608;29;20425;-89
2023/10/14 10:43:43;;;;;;;;;;;;;;;15.07;61.07;101308.56;4897838;29;19915;-89
2023/10/14 10:46:27;;;;;;;;;;;;;;;15.00;62.86;101304.97;4897733;29;19998;-89
2023/10/14 10:48:52;;;;;;;;;;;;;;;15.06;63.64;101317.31;4897871;29;20017;-90
2023/10/14 10:51:18;;;;;;;;;;;;;;;15.19;65.12;101310.47;4914517;29;20027;-89
2023/10/14 10:53:43;;;;;;;;;;;;;;;15.22;61.62;101313.13;4897586;29;19921;-89
2023/10/14 10:56:09;;;;;;;;;;;;;;;15.04;63.78;101324.28;4897513;29;19915;-89
2023/10/14 10:58:34;;;;;;;;;;;;;;;15.17;62.41;101322.69;4914543;29;20433;-90
2023/10/14 11:01:01;;;;;;;;;;;;;;;15.20;61.68;101325.38;4897221;29;20048;-89
2023/10/14 11:03:26;;;;;;;;;;;;;;;15.03;64.17;101319.91;4914668;29;20002;-89
2023/10/14 11:05:53;;;;;;;;;;;;;;;15.18;63.74;101327.97;4914415;29;20009;-88
2023/10/14 11:08:18;;;;;;;;;;;;;;;15.29;63.69;101328.09;4914232;29;19915;-89
2023/10/14 11:10:44;;;;;;;;;;;;;;;15.40;61.42;101333.47;4897371;29;19963;-89
2023/10/14 11:13:12;;;;;;;;;;;;;;;15.42;62.34;101326.50;4896915;29;20396;-89
2023/10/14 11:15:38;;;;;;;;;;;;;;;15.46;63.71;101320.41;4914353;29;20015;-89
2023/10/14 11:18:03;;;;;;;;;;;;;;;15.65;62.13;101321.50;4897272;29;20017;-89
2023/10/14 11:20:34;;;;;;;;;;;;;;;15.69;63.55;101312.78;4897360;29;19915;-88
2023/10/14 11:23:00;;;;;;;;;;;;;;;16.07;59.70;101325.41;4914094;29;19923;-90
2023/10/14 11:25:27;;;;;;;;;;;;;;;15.98;60.95;101326.22;4893680;29;19938;-89
2023/10/14 11:27:54;;;;;;;;;;;;;;;16.14;59.46;101329.00;4914138;29;19922;-89
2023/10/14 11:30:20;;;;;;;;;;;;;;;16.06;62.82;101326.31;4909179;29;19923;-89
2023/10/14 11:32:49;;;;;;;;;;;;;;;16.17;64.48;101327.25;4882395;29;19951;-90
2023/10/14 11:35:16;;;;;;;;;;;;;;;16.32;61.45;101329.16;4886470;29;19954;-90
2023/10/14 11:37:41;;;;;;;;;;;;;;;16.46;61.20;101328.34;4884135;29;19919;-89
2023/10/14 11:40:13;;;;;;;;;;;;;;;16.27;62.69;101333.47;4873436;29;19922;-90
2023/10/14 11:42:41;;;;;;;;;;;;;;;16.12;61.68;101334.22;4875704;29;20291;-89
2023/10/14 11:45:07;;;;;;;;;;;;;;;15.98;64.10;101343.75;4886926;29;19915;-89
2023/10/14 11:47:36;;;;;;;;;;;;;;;16.06;63.26;101342.06;4878957;29;19923;-89
2023/10/14 11:50:11;;;;;;;;;;;;;;;16.11;61.08;101337.72;4879657;29;20441;-90
2023/10/14 11:52:38;;;;;;;;;;;;;;;15.81;63.29;101343.56;4874311;29;20045;-90
2023/10/14 11:55:04;;;;;;;;;;;;;;;15.62;63.87;101347.72;4872614;29;19927;-90
2023/10/14 11:57:30;;;;;;;;;;;;;;;15.38;63.00;101341.34;4881610;29;20429;-90
2023/10/14 11:59:56;;;;;;;;;;;;;;;15.09;63.01;101347.13;4877230;29;19974;-89
2023/10/14 12:02:23;;;;;;;;;;;;;;;14.91;64.84;101342.47;4878741;29;19923;-90
2023/10/14 12:04:48;;;;;;;;;;;;;;;14.77;68.25;101349.28;4909076;29;19915;-89
2023/10/14 12:07:16;;;;;;;;;;;;;;;14.84;68.09;101345.00;4894669;29;20411;-91
2023/10/14 12:09:41;;;;;;;;;;;;;;;15.07;68.97;101340.94;4877092;29;19923;-90
2023/10/14 12:12:08;;;;;;;;;;;;;;;15.55;62.56;101345.91;4887235;29;20010;-90
2023/10/14 12:14:33;;;;;;;;;;;;;;;15.73;60.76;101340.84;4897078;29;20062;-89
2023/10/14 12:17:04;;;;;;;;;;;;;;;15.91;57.93;101340.16;4894921;29;20433;-90
2023/10/14 12:19:29;;;;;;;;;;;;;;;16.07;61.00;101353.47;4887286;29;19930;-90
2023/10/14 12:22:13;;;;;;;;;;;;;;;15.90;62.36;101342.78;4886733;29;19916;-90
2023/10/14 12:25:18;;;;;;;;;;;;;;;15.85;60.22;101342.75;4871206;29;19972;-90
2023/10/14 12:27:48;;;;;;;;;;;;;;;15.50;59.88;101352.81;4852074;29;20387;-90
2023/10/14 12:30:39;;;;;;;;;;;;;;;15.04;61.53;101354.03;4874642;29;19930;-90
2023/10/14 12:33:18;;;;;;;;;;;;;;;14.61;61.53;101358.63;4871210;29;19920;-90
2023/10/14 12:35:53;;;;;;;;;;;;;;;14.26;61.85;101367.72;4865398;29;20370;-90
2023/10/14 12:41:49;;;;;;;;;;;;;;;13.98;65.38;101368.97;4867229;29;20302;-89
2023/10/14 12:44:18;;;;;;;;;;;;;;;14.05;66.62;101369.97;4866908;29;20284;-90
2023/10/14 12:50:14;;;;;;;;;;;;;;;14.54;62.94;101372.50;4820725;29;19920;-90
2023/10/14 12:53:04;;;;;;;;;;;;;;;14.76;61.23;101381.63;4827845;29;20403;-91
2023/10/14 12:55:59;;;;;;;;;;;;;;;;;;;;;
2023/10/14 12:58:42;;;;;;;;;;;;;;;15.14;64.11;101376.03;4867260;29;19915;-92
2023/10/14 13:01:16;;;;;;;;;;;;;;;15.18;59.37;101395.31;4889812;29;19939;-91
2023/10/14 13:03:58;;;;;;;;;;;;;;;14.84;60.25;101402.72;4867058;29;20080;-90
2023/10/14 13:06:44;;;;;;;;;;;;;;;14.33;61.95;101405.38;4888898;29;20475;-90
2023/10/14 13:09:30;;;;;;;;;;;;;;;14.04;61.96;101410.13;4895176;29;19923;-90
2023/10/14 13:12:31;;;;;;;;;;;;;;;13.91;63.71;101416.84;4876870;29;19930;-90
2023/10/14 13:15:25;;;;;;;;;;;;;;;13.86;62.84;101428.97;4878024;29;19923;-90
2023/10/14 13:21:41;;;;;;;;;;;;;;;13.33;67.10;101443.59;4861920;29;19991;-90
2023/10/14 13:24:40;;;;;;;;;;;;;;;13.35;67.78;101444.56;4871342;29;19923;-90
2023/10/14 13:27:17;;;;;;;;;;;;;;;13.55;66.65;101433.59;4879844;29;19928;-90
2023/10/14 13:30:23;;;;;;;;;;;;;;;13.69;67.66;101426.03;4870153;29;19963;-90
2023/10/14 13:33:12;;;;;;;;;;;;;;;14.01;66.55;101425.78;4852366;29;20273;-90